Time,TemperatureF,DewpointF,PressureIn,WindDirection,WindDirectionDegrees,WindSpeedMPH,WindSpeedGustMPH,Humidity,HourlyPrecipIn,Conditions,Clouds,dailyrainin,SoftwareType,DateUTC
2013-02-26 00:01:00,45.0,18.0,30.04,WSW,258,1.0,11.0,34,0.00,,,0.00,,2013-02-26 08:01:00,
2013-02-26 00:11:00,45.0,20.0,30.02,West,271,14.0,26.0,36,0.00,,,0.00,,2013-02-26 08:11:00,
2013-02-26 00:21:00,45.0,20.0,30.02,West,271,14.0,26.0,36,0.00,,,0.00,,2013-02-26 08:21:00,
2013-02-26 00:31:00,45.0,19.0,30.03,West,280,15.0,25.0,35,0.00,,,0.00,,2013-02-26 08:31:00,
2013-02-26 00:41:00,45.0,19.0,30.03,West,280,15.0,25.0,35,0.00,,,0.00,,2013-02-26 08:41:00,
2013-02-26 00:52:00,45.0,19.0,30.03,WSW,256,12.0,21.0,35,0.00,,,0.00,,2013-02-26 08:52:00,
2013-02-26 01:01:00,44.0,21.0,29.99,WSW,253,17.0,25.0,39,0.00,,,0.00,,2013-02-26 09:01:00,
2013-02-26 01:11:00,44.0,21.0,29.99,WSW,253,17.0,25.0,39,0.00,,,0.00,,2013-02-26 09:11:00,
2013-02-26 01:21:00,44.0,21.0,29.98,West,259,16.0,24.0,39,0.00,,,0.00,,2013-02-26 09:21:00,
2013-02-26 01:31:00,44.0,21.0,29.98,WNW,283,18.0,26.0,39,0.00,,,0.00,,2013-02-26 09:31:00,
2013-02-26 01:42:00,44.0,21.0,29.98,WNW,283,18.0,26.0,39,0.00,,,0.00,,2013-02-26 09:42:00,
2013-02-26 01:52:00,44.0,20.0,29.98,WNW,287,18.0,29.0,38,0.00,,,0.00,,2013-02-26 09:52:00,
2013-02-26 02:01:00,44.0,18.0,29.98,West,278,14.0,26.0,35,0.00,,,0.00,,2013-02-26 10:01:00,
2013-02-26 02:11:00,44.0,18.0,29.98,West,278,14.0,26.0,35,0.00,,,0.00,,2013-02-26 10:11:00,
2013-02-26 02:21:00,45.0,18.0,29.97,WSW,242,16.0,25.0,33,0.00,,,0.00,,2013-02-26 10:21:00,
2013-02-26 02:31:00,44.0,15.0,29.98,West,267,3.0,14.0,30,0.00,,,0.00,,2013-02-26 10:31:00,
2013-02-26 02:41:00,44.0,15.0,29.98,West,267,3.0,14.0,30,0.00,,,0.00,,2013-02-26 10:41:00,
2013-02-26 02:52:00,42.0,18.0,29.96,West,276,13.0,17.0,38,0.00,,,0.00,,2013-02-26 10:52:00,
2013-02-26 03:01:00,42.0,20.0,29.95,West,267,10.0,20.0,41,0.00,,,0.00,,2013-02-26 11:01:00,
2013-02-26 03:11:00,42.0,20.0,29.95,West,267,10.0,20.0,41,0.00,,,0.00,,2013-02-26 11:11:00,
2013-02-26 03:21:00,42.0,18.0,29.96,WSW,253,14.0,20.0,37,0.00,,,0.00,,2013-02-26 11:21:00,
2013-02-26 03:31:00,44.0,17.0,29.98,West,271,7.0,16.0,33,0.00,,,0.00,,2013-02-26 11:31:00,
2013-02-26 03:41:00,44.0,17.0,29.98,West,271,7.0,16.0,33,0.00,,,0.00,,2013-02-26 11:41:00,
2013-02-26 03:52:00,42.0,17.0,29.96,WNW,294,0.0,7.0,36,0.00,,,0.00,,2013-02-26 11:52:00,
2013-02-26 04:01:00,42.0,16.0,29.96,WNW,294,0.0,2.0,35,0.00,,,0.00,,2013-02-26 12:01:00,
2013-02-26 04:11:00,42.0,16.0,29.96,WNW,294,0.0,2.0,35,0.00,,,0.00,,2013-02-26 12:11:00,
2013-02-26 04:22:00,39.0,17.0,29.98,East,88,0.0,6.0,40,0.00,,,0.00,,2013-02-26 12:22:00,
2013-02-26 04:32:00,39.0,17.0,29.96,ENE,57,1.0,7.0,40,0.00,,,0.00,,2013-02-26 12:32:00,
2013-02-26 04:41:00,39.0,17.0,29.96,ENE,57,1.0,7.0,40,0.00,,,0.00,,2013-02-26 12:41:00,
2013-02-26 04:52:00,40.0,18.0,29.98,NW,319,0.0,9.0,41,0.00,,,0.00,,2013-02-26 12:52:00,
2013-02-26 05:01:00,40.0,19.0,29.98,NW,324,2.0,7.0,43,0.00,,,0.00,,2013-02-26 13:01:00,
2013-02-26 05:11:00,40.0,19.0,29.98,NW,324,2.0,7.0,43,0.00,,,0.00,,2013-02-26 13:11:00,
2013-02-26 05:21:00,40.0,21.0,29.98,WNW,302,10.0,12.0,47,0.00,,,0.00,,2013-02-26 13:21:00,
2013-02-26 05:31:00,40.0,22.0,29.99,North,355,4.0,11.0,49,0.00,,,0.00,,2013-02-26 13:31:00,
2013-02-26 05:42:00,40.0,22.0,29.99,North,355,4.0,11.0,49,0.00,,,0.00,,2013-02-26 13:42:00,
2013-02-26 05:52:00,40.0,22.0,29.99,NW,306,5.0,9.0,49,0.00,,,0.00,,2013-02-26 13:52:00,
2013-02-26 06:01:00,39.0,21.0,29.99,WNW,286,5.0,11.0,48,0.00,,,0.00,,2013-02-26 14:01:00,
2013-02-26 06:11:00,39.0,21.0,29.99,WNW,286,5.0,11.0,48,0.00,,,0.00,,2013-02-26 14:11:00,
2013-02-26 06:21:00,39.0,22.0,29.99,NW,305,0.0,6.0,50,0.00,,,0.00,,2013-02-26 14:21:00,
2013-02-26 06:31:00,39.0,21.0,30.00,West,275,0.0,6.0,49,0.00,,,0.00,,2013-02-26 14:31:00,
2013-02-26 06:41:00,39.0,21.0,30.00,West,275,0.0,6.0,49,0.00,,,0.00,,2013-02-26 14:41:00,
2013-02-26 06:52:00,39.0,21.0,30.00,WNW,298,4.0,10.0,48,0.00,,,0.00,,2013-02-26 14:52:00,
2013-02-26 07:01:00,40.0,20.0,30.00,NW,313,0.0,11.0,45,0.00,,,0.00,,2013-02-26 15:01:00,
2013-02-26 07:11:00,40.0,20.0,30.00,NW,313,0.0,11.0,45,0.00,,,0.00,,2013-02-26 15:11:00,
2013-02-26 07:21:00,40.0,19.0,30.00,NW,313,2.0,5.0,43,0.00,,,0.00,,2013-02-26 15:21:00,
2013-02-26 07:31:00,42.0,19.0,30.01,North,351,5.0,7.0,40,0.00,,,0.00,,2013-02-26 15:31:00,
2013-02-26 07:41:00,42.0,19.0,30.01,North,351,5.0,7.0,40,0.00,,,0.00,,2013-02-26 15:41:00,
2013-02-26 07:52:00,43.0,20.0,30.01,NNE,15,8.0,12.0,39,0.00,,,0.00,,2013-02-26 15:52:00,
2013-02-26 08:01:00,45.0,21.0,30.01,NNW,335,9.0,13.0,38,0.00,,,0.00,,2013-02-26 16:01:00,
2013-02-26 08:11:00,45.0,21.0,30.01,NNW,335,9.0,13.0,38,0.00,,,0.00,,2013-02-26 16:11:00,
2013-02-26 08:22:00,46.0,22.0,30.01,NNE,14,12.0,17.0,38,0.00,,,0.00,,2013-02-26 16:22:00,
2013-02-26 08:31:00,47.0,22.0,30.01,North,360,12.0,17.0,37,0.00,,,0.00,,2013-02-26 16:31:00,
2013-02-26 08:41:00,47.0,22.0,30.01,North,360,12.0,17.0,37,0.00,,,0.00,,2013-02-26 16:41:00,
2013-02-26 08:52:00,48.0,23.0,30.02,NNE,23,9.0,15.0,37,0.00,,,0.00,,2013-02-26 16:52:00,
2013-02-26 09:01:00,48.0,24.0,30.03,NE,35,8.0,16.0,38,0.00,,,0.00,,2013-02-26 17:01:00,
2013-02-26 09:11:00,49.0,25.0,30.05,NNE,23,10.0,16.0,38,0.00,,,0.00,,2013-02-26 17:11:00,
2013-02-26 09:21:00,49.0,25.0,30.05,NNE,23,10.0,16.0,38,0.00,,,0.00,,2013-02-26 17:21:00,
2013-02-26 09:32:00,49.0,25.0,30.05,NNE,28,12.0,18.0,39,0.00,,,0.00,,2013-02-26 17:32:00,
2013-02-26 09:41:00,49.0,25.0,30.05,NNE,28,12.0,18.0,39,0.00,,,0.00,,2013-02-26 17:41:00,
2013-02-26 09:52:00,49.0,25.0,30.05,NNE,27,12.0,18.0,39,0.00,,,0.00,,2013-02-26 17:52:00,
2013-02-26 10:01:00,50.0,25.0,30.06,NNE,30,12.0,19.0,38,0.00,,,0.00,,2013-02-26 18:01:00,
2013-02-26 10:12:00,50.0,25.0,30.06,NNE,30,12.0,19.0,38,0.00,,,0.00,,2013-02-26 18:12:00,
2013-02-26 10:21:00,50.0,21.0,30.06,North,360,11.0,22.0,32,0.00,,,0.00,,2013-02-26 18:21:00,
2013-02-26 10:31:00,51.0,21.0,30.07,NE,34,9.0,23.0,30,0.00,,,0.00,,2013-02-26 18:31:00,
2013-02-26 10:42:00,51.0,21.0,30.07,NE,34,9.0,23.0,30,0.00,,,0.00,,2013-02-26 18:42:00,
2013-02-26 10:52:00,51.0,21.0,30.07,North,9,17.0,22.0,30,0.00,,,0.00,,2013-02-26 18:52:00,
2013-02-26 11:01:00,52.0,20.0,30.06,NE,37,15.0,25.0,28,0.00,,,0.00,,2013-02-26 19:01:00,
2013-02-26 11:11:00,52.0,20.0,30.06,NE,37,15.0,25.0,28,0.00,,,0.00,,2013-02-26 19:11:00,
2013-02-26 11:22:00,52.0,19.0,30.06,NNE,19,11.0,25.0,27,0.00,,,0.00,,2013-02-26 19:22:00,
2013-02-26 11:31:00,53.0,18.0,30.06,ENE,59,11.0,29.0,25,0.00,,,0.00,,2013-02-26 19:31:00,
2013-02-26 11:41:00,53.0,18.0,30.06,ENE,59,11.0,29.0,25,0.00,,,0.00,,2013-02-26 19:41:00,
2013-02-26 11:52:00,53.0,15.0,30.06,NE,34,16.0,26.0,22,0.00,,,0.00,,2013-02-26 19:52:00,
2013-02-26 12:01:00,54.0,14.0,30.05,NNE,19,12.0,31.0,20,0.00,,,0.00,,2013-02-26 20:01:00,
2013-02-26 12:11:00,54.0,14.0,30.05,NNE,19,12.0,31.0,20,0.00,,,0.00,,2013-02-26 20:11:00,
2013-02-26 12:21:00,54.0,15.0,30.05,NNE,13,14.0,28.0,21,0.00,,,0.00,,2013-02-26 20:21:00,
2013-02-26 12:31:00,54.0,13.0,30.04,ENE,60,17.0,28.0,19,0.00,,,0.00,,2013-02-26 20:31:00,
2013-02-26 12:41:00,54.0,13.0,30.04,ENE,60,17.0,28.0,19,0.00,,,0.00,,2013-02-26 20:41:00,
2013-02-26 12:52:00,55.0,14.0,30.03,NNE,26,13.0,28.0,19,0.00,,,0.00,,2013-02-26 20:52:00,
2013-02-26 13:01:00,55.0,15.0,30.03,NE,38,9.0,26.0,20,0.00,,,0.00,,2013-02-26 21:01:00,
2013-02-26 13:11:00,55.0,15.0,30.03,NE,38,9.0,26.0,20,0.00,,,0.00,,2013-02-26 21:11:00,
2013-02-26 13:21:00,56.0,13.0,30.02,NNE,31,15.0,24.0,18,0.00,,,0.00,,2013-02-26 21:21:00,
2013-02-26 13:31:00,56.0,12.0,30.02,NNE,26,10.0,27.0,17,0.00,,,0.00,,2013-02-26 21:31:00,
2013-02-26 13:41:00,56.0,12.0,30.02,NNE,26,10.0,27.0,17,0.00,,,0.00,,2013-02-26 21:41:00,
2013-02-26 13:51:00,56.0,12.0,30.02,NNE,30,16.0,27.0,17,0.00,,,0.00,,2013-02-26 21:51:00,
2013-02-26 14:01:00,56.0,10.0,30.02,NE,36,18.0,26.0,16,0.00,,,0.00,,2013-02-26 22:01:00,
2013-02-26 14:11:00,56.0,12.0,30.02,NE,35,17.0,24.0,17,0.00,,,0.00,,2013-02-26 22:11:00,
2013-02-26 14:21:00,56.0,12.0,30.02,NE,35,17.0,24.0,17,0.00,,,0.00,,2013-02-26 22:21:00,
2013-02-26 14:31:00,56.0,10.0,30.03,NNE,30,10.0,19.0,16,0.00,,,0.00,,2013-02-26 22:31:00,
2013-02-26 14:41:00,56.0,10.0,30.03,NNE,30,10.0,19.0,16,0.00,,,0.00,,2013-02-26 22:41:00,
2013-02-26 14:51:00,56.0,10.0,30.03,NE,34,15.0,27.0,16,0.00,,,0.00,,2013-02-26 22:51:00,
2013-02-26 15:01:00,56.0,10.0,30.03,NE,44,9.0,21.0,16,0.00,,,0.00,,2013-02-26 23:01:00,
2013-02-26 15:11:00,56.0,10.0,30.03,NE,44,9.0,21.0,16,0.00,,,0.00,,2013-02-26 23:11:00,
2013-02-26 15:21:00,56.0,10.0,30.03,NE,42,11.0,20.0,16,0.00,,,0.00,,2013-02-26 23:21:00,
2013-02-26 15:31:00,57.0,10.0,30.03,NE,41,9.0,17.0,15,0.00,,,0.00,,2013-02-26 23:31:00,
2013-02-26 15:41:00,57.0,10.0,30.03,NE,41,9.0,17.0,15,0.00,,,0.00,,2013-02-26 23:41:00,
2013-02-26 15:52:00,57.0,8.0,30.04,NE,34,13.0,20.0,14,0.00,,,0.00,,2013-02-26 23:52:00,
2013-02-26 16:01:00,57.0,10.0,30.04,ENE,74,15.0,20.0,15,0.00,,,0.00,,2013-02-27 00:01:00,
2013-02-26 16:11:00,57.0,10.0,30.04,ENE,74,15.0,20.0,15,0.00,,,0.00,,2013-02-27 00:11:00,
2013-02-26 16:21:00,56.0,7.0,30.02,NNE,22,9.0,18.0,14,0.00,,,0.00,,2013-02-27 00:21:00,
2013-02-26 16:31:00,56.0,9.0,30.03,NNE,24,11.0,18.0,15,0.00,,,0.00,,2013-02-27 00:31:00,
2013-02-26 16:41:00,56.0,9.0,30.03,NNE,24,11.0,18.0,15,0.00,,,0.00,,2013-02-27 00:41:00,
2013-02-26 16:52:00,56.0,7.0,30.03,NNE,29,10.0,20.0,14,0.00,,,0.00,,2013-02-27 00:52:00,
2013-02-26 17:01:00,55.0,8.0,30.01,NE,42,9.0,15.0,15,0.00,,,0.00,,2013-02-27 01:01:00,
2013-02-26 17:11:00,55.0,8.0,30.01,NE,42,9.0,15.0,15,0.00,,,0.00,,2013-02-27 01:11:00,
2013-02-26 17:21:00,55.0,8.0,30.01,NE,38,7.0,19.0,15,0.00,,,0.00,,2013-02-27 01:21:00,
2013-02-26 17:31:00,54.0,7.0,30.02,North,10,6.0,15.0,15,0.00,,,0.00,,2013-02-27 01:31:00,
2013-02-26 17:41:00,54.0,7.0,30.02,North,10,6.0,15.0,15,0.00,,,0.00,,2013-02-27 01:41:00,
2013-02-26 17:52:00,53.0,13.0,30.02,NE,47,5.0,12.0,20,0.00,,,0.00,,2013-02-27 01:52:00,
2013-02-26 18:01:00,52.0,7.0,30.03,NE,46,6.0,11.0,16,0.00,,,0.00,,2013-02-27 02:01:00,
2013-02-26 18:12:00,52.0,7.0,30.03,NE,46,6.0,11.0,16,0.00,,,0.00,,2013-02-27 02:12:00,
2013-02-26 18:21:00,52.0,6.0,30.03,NNE,28,9.0,14.0,15,0.00,,,0.00,,2013-02-27 02:21:00,
2013-02-26 18:31:00,52.0,6.0,30.04,NE,42,6.0,15.0,15,0.00,,,0.00,,2013-02-27 02:31:00,
2013-02-26 18:41:00,52.0,6.0,30.04,NE,42,6.0,15.0,15,0.00,,,0.00,,2013-02-27 02:41:00,
2013-02-26 18:52:00,51.0,5.0,30.05,NE,40,6.0,11.0,15,0.00,,,0.00,,2013-02-27 02:52:00,
2013-02-26 19:01:00,51.0,5.0,30.06,ENE,57,8.0,14.0,15,0.00,,,0.00,,2013-02-27 03:01:00,
2013-02-26 19:11:00,51.0,5.0,30.06,ENE,57,8.0,14.0,15,0.00,,,0.00,,2013-02-27 03:11:00,
2013-02-26 19:21:00,51.0,5.0,30.07,NNE,26,6.0,15.0,15,0.00,,,0.00,,2013-02-27 03:21:00,
2013-02-26 19:31:00,50.0,4.0,30.07,NE,34,9.0,15.0,15,0.00,,,0.00,,2013-02-27 03:31:00,
2013-02-26 19:41:00,50.0,4.0,30.07,NE,34,9.0,15.0,15,0.00,,,0.00,,2013-02-27 03:41:00,
2013-02-26 19:52:00,50.0,4.0,30.09,NNE,28,5.0,13.0,15,0.00,,,0.00,,2013-02-27 03:52:00,
2013-02-26 20:01:00,47.0,4.0,30.08,NNE,26,5.0,11.0,17,0.00,,,0.00,,2013-02-27 04:01:00,
2013-02-26 20:11:00,47.0,4.0,30.08,NNE,26,5.0,11.0,17,0.00,,,0.00,,2013-02-27 04:11:00,
2013-02-26 20:21:00,46.0,6.0,30.08,NNE,13,5.0,11.0,19,0.00,,,0.00,,2013-02-27 04:21:00,
2013-02-26 20:31:00,45.0,9.0,30.08,North,5,7.0,12.0,23,0.00,,,0.00,,2013-02-27 04:31:00,
2013-02-26 20:41:00,45.0,9.0,30.08,North,5,7.0,12.0,23,0.00,,,0.00,,2013-02-27 04:41:00,
2013-02-26 20:52:00,45.0,13.0,30.09,NNE,17,6.0,9.0,27,0.00,,,0.00,,2013-02-27 04:52:00,
2013-02-26 21:01:00,45.0,15.0,30.09,NNE,12,7.0,11.0,30,0.00,,,0.00,,2013-02-27 05:01:00,
2013-02-26 21:11:00,45.0,15.0,30.09,NNE,12,7.0,11.0,30,0.00,,,0.00,,2013-02-27 05:11:00,
2013-02-26 21:21:00,44.0,17.0,30.09,North,5,5.0,11.0,33,0.00,,,0.00,,2013-02-27 05:21:00,
2013-02-26 21:32:00,44.0,17.0,30.09,NNE,20,6.0,11.0,34,0.00,,,0.00,,2013-02-27 05:32:00,
2013-02-26 21:41:00,44.0,17.0,30.09,NNE,20,6.0,11.0,34,0.00,,,0.00,,2013-02-27 05:41:00,
2013-02-26 21:52:00,43.0,17.0,30.10,North,5,7.0,12.0,34,0.00,,,0.00,,2013-02-27 05:52:00,
2013-02-26 22:02:00,43.0,16.0,30.09,North,5,10.0,13.0,33,0.00,,,0.00,,2013-02-27 06:02:00,
2013-02-26 22:11:00,43.0,16.0,30.09,North,5,10.0,13.0,33,0.00,,,0.00,,2013-02-27 06:11:00,
2013-02-26 22:21:00,43.0,14.0,30.10,NNE,15,8.0,13.0,31,0.00,,,0.00,,2013-02-27 06:21:00,
2013-02-26 22:32:00,43.0,14.0,30.10,NNE,21,5.0,12.0,31,0.00,,,0.00,,2013-02-27 06:32:00,
2013-02-26 22:41:00,43.0,14.0,30.10,NNE,21,5.0,12.0,31,0.00,,,0.00,,2013-02-27 06:41:00,
2013-02-26 22:52:00,42.0,12.0,30.10,NE,34,3.0,13.0,29,0.00,,,0.00,,2013-02-27 06:52:00,
2013-02-26 23:01:00,42.0,12.0,30.11,North,5,2.0,7.0,29,0.00,,,0.00,,2013-02-27 07:01:00,
2013-02-26 23:11:00,42.0,12.0,30.11,North,5,2.0,7.0,29,0.00,,,0.00,,2013-02-27 07:11:00,
2013-02-26 23:21:00,41.0,12.0,30.13,North,5,0.0,3.0,30,0.00,,,0.00,,2013-02-27 07:21:00,
2013-02-26 23:31:00,41.0,10.0,30.12,NNW,331,3.0,5.0,28,0.00,,,0.00,,2013-02-27 07:31:00,
2013-02-26 23:41:00,41.0,10.0,30.12,NNW,331,3.0,5.0,28,0.00,,,0.00,,2013-02-27 07:41:00,
2013-02-26 23:52:00,41.0,10.0,30.12,NNW,336,3.0,6.0,27,0.00,,,0.00,,2013-02-27 07:52:00,